Terminal Aerodrome Forecast
Issued by NWS North Platte, NE

Home | Current Version | Previous Version | Graphics & Text | Print | Product List | Glossary On
Versions: 1 2 3 4 5 6 7 8 9 10 11 12 13 14 15
000
FTUS43 KLBF 271728
TAFVTN
TAF
KVTN 271728Z 2718/2818 14015G24KT P6SM SCT200
     FM272100 17015G24KT P6SM BKN070 OVC200
      TEMPO 2802/2806 VRB35G46KT 2SM TSRA BKN050CB
     FM280600 31013KT P6SM BKN120=

USA.gov is the U.S. government's official web portal to all federal, state and local government web resources and services.